Weather at Clare Municipal Airport

Public forecast

Using degrees Fahrenheit for public forecast. Weather courtesy of forecast.io.

Closest aviation weather report (METAR) to Clare Municipal Airport

Closest report is Mount Pleasant Municipal Airport, 12.8 nm (23.7 km) S. Retrieved 2020/09/20 19:35 UTC (21 minutes ago):

KMOP 201935Z AUTO 14008KT 10SM CLR 20/04 A3046 RMK AO2 T02020041

Closest aviation forecast (TAF) to Clare Municipal Airport

Closest forecast is MBS International Airport, 33.9 nm (62.8 km) ESE. Retrieved 2020/09/20 18:40 UTC (1 hour ago):

TAF KMBS 201737Z 2018/2118 15009KT P6SM SKC FM210600 15003KT P6SM BKN250 FM211400 19007KT P6SM SKC